createdAt,value
2022-10-04T00:00:13.961Z,7
2022-10-04T00:01:13.957Z,5
2022-10-04T00:02:14.041Z,6
2022-10-04T00:04:14.035Z,6
2022-10-04T00:05:13.969Z,5
2022-10-04T00:06:13.968Z,6
2022-10-04T00:07:13.962Z,6
2022-10-04T00:08:13.961Z,6
2022-10-04T00:09:13.959Z,6
2022-10-04T00:10:13.963Z,6
2022-10-04T00:11:13.985Z,6
2022-10-04T00:12:13.962Z,6
2022-10-04T00:13:13.966Z,6
2022-10-04T00:14:13.964Z,6
2022-10-04T00:15:13.963Z,5
2022-10-04T00:16:14.032Z,5
2022-10-04T00:17:13.950Z,5
2022-10-04T00:18:13.953Z,5
2022-10-04T00:19:13.969Z,5
2022-10-04T00:20:13.972Z,6
2022-10-04T00:21:13.939Z,5
2022-10-04T00:22:14.038Z,6
2022-10-04T00:23:13.973Z,6
2022-10-04T00:24:13.992Z,6
2022-10-04T00:25:13.965Z,6
2022-10-04T00:26:13.967Z,6
2022-10-04T00:27:13.967Z,6
2022-10-04T00:28:14.025Z,5
2022-10-04T00:29:13.965Z,6
2022-10-04T00:30:13.979Z,6
2022-10-04T00:31:14.035Z,6
2022-10-04T00:33:13.962Z,5
2022-10-04T00:34:13.978Z,5
2022-10-04T00:35:13.979Z,5
2022-10-04T00:36:13.974Z,6
2022-10-04T00:37:13.997Z,6
2022-10-04T00:38:13.975Z,6
2022-10-04T00:39:13.966Z,5
2022-10-04T00:40:13.970Z,5
2022-10-04T00:41:13.964Z,6
2022-10-04T00:42:13.972Z,6
2022-10-04T00:43:13.969Z,6
2022-10-04T00:44:13.981Z,6
2022-10-04T00:45:13.977Z,7
2022-10-04T00:46:14.050Z,6
2022-10-04T00:47:13.972Z,7
2022-10-04T00:48:14.003Z,7
2022-10-04T00:49:14.005Z,6
2022-10-04T00:50:13.969Z,7
2022-10-04T00:51:13.986Z,6
2022-10-04T00:52:13.978Z,6
2022-10-04T00:54:13.997Z,7
2022-10-04T00:55:14.067Z,6
2022-10-04T00:56:13.994Z,7
2022-10-04T00:57:13.976Z,7
2022-10-04T00:58:13.982Z,7
2022-10-04T00:59:13.978Z,6
2022-10-04T01:00:13.972Z,7
2022-10-04T01:01:13.982Z,7
2022-10-04T01:02:14.083Z,7
2022-10-04T01:04:13.978Z,7
2022-10-04T01:05:13.974Z,7
2022-10-04T01:06:13.990Z,8
2022-10-04T01:07:14.001Z,7
2022-10-04T01:08:13.987Z,7
2022-10-04T01:09:13.985Z,7
2022-10-04T01:10:13.985Z,7
2022-10-04T01:11:13.985Z,7
2022-10-04T01:12:13.984Z,6
2022-10-04T01:13:13.964Z,6
2022-10-04T01:14:13.974Z,6
2022-10-04T01:15:13.981Z,6
2022-10-04T01:16:14.052Z,6
2022-10-04T01:17:13.984Z,7
2022-10-04T01:18:13.984Z,6
2022-10-04T01:19:13.978Z,6
2022-10-04T01:20:14.000Z,7
2022-10-04T01:21:14.001Z,7
2022-10-04T01:22:13.987Z,6
2022-10-04T01:23:13.981Z,7
2022-10-04T01:24:14.004Z,6
2022-10-04T01:25:13.992Z,6
2022-10-04T01:26:14.007Z,7
2022-10-04T01:27:13.983Z,7
2022-10-04T01:28:14.014Z,6
2022-10-04T01:29:13.979Z,6
2022-10-04T01:30:13.981Z,7
2022-10-04T01:31:14.068Z,7
2022-10-04T01:32:13.985Z,7
2022-10-04T01:33:13.990Z,7
2022-10-04T01:34:13.995Z,6
2022-10-04T01:35:13.992Z,7
2022-10-04T01:36:14.000Z,7
2022-10-04T01:37:13.984Z,7
2022-10-04T01:38:14.017Z,6
2022-10-04T01:39:13.987Z,7
2022-10-04T01:40:13.985Z,6
2022-10-04T01:41:13.994Z,7
2022-10-04T01:42:13.995Z,6
2022-10-04T01:43:13.992Z,6
2022-10-04T01:44:13.989Z,6
2022-10-04T01:45:13.994Z,6
2022-10-04T01:46:14.028Z,6
2022-10-04T01:47:14.065Z,6
2022-10-04T01:48:14.002Z,6
2022-10-04T01:49:14.041Z,6
2022-10-04T01:50:15.982Z,6
2022-10-04T01:51:13.980Z,6
2022-10-04T01:52:13.978Z,6
2022-10-04T01:53:14.024Z,6
2022-10-04T01:54:13.991Z,6
2022-10-04T01:55:14.002Z,6
2022-10-04T01:56:14.047Z,7
2022-10-04T01:57:14.035Z,6
2022-10-04T01:58:13.993Z,6
2022-10-04T01:59:13.988Z,6
2022-10-04T02:00:14.009Z,6
2022-10-04T02:01:14.059Z,6
2022-10-04T02:02:14.000Z,7
2022-10-04T02:03:13.999Z,6
2022-10-04T02:04:16.259Z,6
2022-10-04T02:05:14.023Z,6
2022-10-04T02:06:13.990Z,6
2022-10-04T02:07:14.001Z,6
2022-10-04T02:08:14.002Z,6
2022-10-04T02:09:14.004Z,7
2022-10-04T02:10:14.004Z,6
2022-10-04T02:11:13.998Z,7
2022-10-04T02:12:14.007Z,7
2022-10-04T02:13:14.003Z,6
2022-10-04T02:14:14.059Z,6
2022-10-04T02:15:14.009Z,6
2022-10-04T02:16:14.047Z,6
2022-10-04T02:17:13.992Z,6
2022-10-04T02:18:13.995Z,6
2022-10-04T02:19:13.997Z,6
2022-10-04T02:20:13.999Z,6
2022-10-04T02:21:14.009Z,7
2022-10-04T02:22:13.988Z,7
2022-10-04T02:23:13.993Z,6
2022-10-04T02:24:13.991Z,7
2022-10-04T02:25:14.003Z,6
2022-10-04T02:27:13.998Z,7
2022-10-04T02:28:14.114Z,7
2022-10-04T02:29:14.006Z,6
2022-10-04T02:30:14.007Z,6
2022-10-04T02:31:14.068Z,6
2022-10-04T02:32:14.007Z,6
2022-10-04T02:33:13.996Z,6
2022-10-04T02:34:14.006Z,7
2022-10-04T02:35:14.004Z,6
2022-10-04T02:36:14.017Z,7
2022-10-04T02:37:14.024Z,7
2022-10-04T02:38:13.993Z,6
2022-10-04T02:39:14.009Z,6
2022-10-04T02:40:14.025Z,7
2022-10-04T02:41:14.015Z,7
2022-10-04T02:42:14.002Z,6
2022-10-04T02:43:14.007Z,6
2022-10-04T02:44:14.001Z,6
2022-10-04T02:45:14.009Z,6
2022-10-04T02:46:14.068Z,6
2022-10-04T02:48:14.021Z,7
2022-10-04T02:49:14.325Z,6
2022-10-04T02:50:14.033Z,6
2022-10-04T02:51:14.011Z,6
2022-10-04T02:52:14.735Z,6
2022-10-04T02:53:13.995Z,6
2022-10-04T02:54:14.003Z,6
2022-10-04T02:55:14.010Z,6
2022-10-04T02:56:14.050Z,7
2022-10-04T02:57:14.056Z,7
2022-10-04T02:58:14.009Z,6
2022-10-04T02:59:14.042Z,6
2022-10-04T03:00:14.009Z,6
2022-10-04T03:01:14.062Z,6
2022-10-04T03:02:14.119Z,6
2022-10-04T03:03:14.017Z,6
2022-10-04T03:04:14.015Z,6
2022-10-04T03:05:14.023Z,6
2022-10-04T03:06:14.018Z,6
2022-10-04T03:07:14.024Z,6
2022-10-04T03:08:14.011Z,6
2022-10-04T03:09:14.026Z,6
2022-10-04T03:10:14.016Z,6
2022-10-04T03:11:14.014Z,6
2022-10-04T03:12:14.018Z,6
2022-10-04T03:13:14.005Z,6
2022-10-04T03:14:14.011Z,6
2022-10-04T03:15:14.053Z,7
2022-10-04T03:16:14.135Z,6
2022-10-04T03:17:14.025Z,6
2022-10-04T03:18:14.008Z,6
2022-10-04T03:19:14.012Z,6
2022-10-04T03:21:14.023Z,6
2022-10-04T03:22:14.017Z,6
2022-10-04T03:23:14.019Z,6
2022-10-04T03:24:14.014Z,6
2022-10-04T03:25:14.035Z,6
2022-10-04T03:26:14.023Z,6
2022-10-04T03:27:14.023Z,6
2022-10-04T03:28:14.080Z,6
2022-10-04T03:30:14.066Z,5
2022-10-04T03:31:14.061Z,6
2022-10-04T03:32:14.021Z,6
2022-10-04T03:33:14.064Z,6
2022-10-04T03:34:14.023Z,6
2022-10-04T03:35:14.024Z,6
2022-10-04T03:36:14.026Z,6
2022-10-04T03:37:14.028Z,6
2022-10-04T03:38:14.024Z,6
2022-10-04T03:39:14.039Z,5
2022-10-04T03:40:14.026Z,6
2022-10-04T03:41:14.049Z,5
2022-10-04T03:42:14.021Z,6
2022-10-04T03:43:14.034Z,6
2022-10-04T03:44:14.039Z,6
2022-10-04T03:45:14.030Z,6
2022-10-04T03:46:14.108Z,5
2022-10-04T03:47:14.019Z,6
2022-10-04T03:48:14.024Z,6
2022-10-04T03:50:14.018Z,6
2022-10-04T03:51:14.021Z,5
2022-10-04T03:52:14.020Z,6
2022-10-04T03:53:14.057Z,6
2022-10-04T03:54:14.017Z,6
2022-10-04T03:55:14.034Z,6
2022-10-04T03:56:14.028Z,6
2022-10-04T03:57:14.018Z,6
2022-10-04T03:58:14.035Z,5
2022-10-04T03:59:14.080Z,6
2022-10-04T04:00:14.032Z,5
2022-10-04T04:01:14.116Z,6
2022-10-04T04:02:14.093Z,6
2022-10-04T04:03:14.054Z,6
2022-10-04T04:04:14.045Z,6
2022-10-04T04:06:14.069Z,5
2022-10-04T04:07:14.044Z,6
2022-10-04T04:08:14.104Z,6
2022-10-04T04:09:14.035Z,6
2022-10-04T04:10:16.800Z,5
2022-10-04T04:11:14.031Z,6
2022-10-04T04:12:14.044Z,6
2022-10-04T04:13:14.035Z,5
2022-10-04T04:15:14.043Z,5
2022-10-04T04:16:14.100Z,6
2022-10-04T04:17:14.044Z,5
2022-10-04T04:18:14.035Z,5
2022-10-04T04:19:14.036Z,5
2022-10-04T04:20:14.045Z,6
2022-10-04T04:21:14.074Z,6
2022-10-04T04:22:14.028Z,5
2022-10-04T04:23:14.034Z,6
2022-10-04T04:24:14.032Z,6
2022-10-04T04:25:14.450Z,6
2022-10-04T04:26:14.027Z,6
2022-10-04T04:27:14.031Z,5
2022-10-04T04:28:14.199Z,6
2022-10-04T04:29:14.028Z,6
2022-10-04T04:30:14.064Z,6
2022-10-04T04:31:14.057Z,6
2022-10-04T04:32:14.163Z,5
2022-10-04T04:33:15.700Z,5
2022-10-04T04:34:14.059Z,6
2022-10-04T04:35:14.054Z,5
2022-10-04T04:36:14.033Z,5
2022-10-04T04:37:14.059Z,6
2022-10-04T04:38:14.033Z,5
2022-10-04T04:39:14.033Z,6
2022-10-04T04:40:14.035Z,5
2022-10-04T04:41:14.053Z,7
2022-10-04T04:42:14.031Z,5
2022-10-04T04:44:14.048Z,6
2022-10-04T04:45:14.053Z,6
2022-10-04T04:46:29.450Z,5
2022-10-04T04:47:17.591Z,6
2022-10-04T04:48:14.037Z,6
2022-10-04T04:49:14.065Z,6
2022-10-04T04:50:14.027Z,6
2022-10-04T04:51:14.078Z,6
2022-10-04T04:52:14.040Z,6
2022-10-04T04:53:14.045Z,5
2022-10-04T04:54:14.037Z,6
2022-10-04T04:55:14.041Z,6
2022-10-04T04:56:17.454Z,6
2022-10-04T04:57:14.063Z,6
2022-10-04T04:58:14.054Z,5
2022-10-04T04:59:14.038Z,6
2022-10-04T05:00:14.058Z,5
2022-10-04T05:01:14.145Z,5
2022-10-04T05:02:14.080Z,6
2022-10-04T05:03:14.059Z,6
2022-10-04T05:05:14.110Z,5
2022-10-04T05:06:14.047Z,6
2022-10-04T05:08:14.057Z,6
2022-10-04T05:09:14.064Z,6
2022-10-04T05:10:14.038Z,6
2022-10-04T05:11:14.046Z,6
2022-10-04T05:12:14.044Z,6
2022-10-04T05:13:14.067Z,6
2022-10-04T05:14:14.050Z,6
2022-10-04T05:15:15.336Z,6
2022-10-04T05:16:14.111Z,6
2022-10-04T05:17:14.051Z,6
2022-10-04T05:18:14.044Z,6
2022-10-04T05:19:14.042Z,6
2022-10-04T05:20:14.055Z,6
2022-10-04T05:21:14.050Z,7
2022-10-04T05:22:14.037Z,6
2022-10-04T05:23:14.046Z,6
2022-10-04T05:24:14.066Z,6
2022-10-04T05:25:14.040Z,6
2022-10-04T05:26:14.052Z,6
2022-10-04T05:27:14.114Z,6
2022-10-04T05:28:14.097Z,6
2022-10-04T05:29:14.042Z,6
2022-10-04T05:30:14.045Z,6
2022-10-04T05:32:14.059Z,3
2022-10-04T05:33:14.044Z,3
2022-10-04T05:34:14.078Z,3
2022-10-04T05:35:14.047Z,4
2022-10-04T05:36:14.056Z,4
2022-10-04T05:37:14.054Z,4
2022-10-04T05:38:14.057Z,4
2022-10-04T05:39:14.066Z,4
2022-10-04T05:40:14.057Z,5
2022-10-04T05:41:14.054Z,5
2022-10-04T05:42:14.045Z,5
2022-10-04T05:43:14.041Z,5
2022-10-04T05:44:14.049Z,5
2022-10-04T05:45:14.068Z,5
2022-10-04T05:46:14.114Z,5
2022-10-04T05:47:14.066Z,5
2022-10-04T05:48:14.060Z,5
2022-10-04T05:49:18.908Z,5
2022-10-04T05:50:14.057Z,5
2022-10-04T05:51:14.064Z,5
2022-10-04T05:52:14.070Z,5
2022-10-04T05:53:14.069Z,4
2022-10-04T05:54:14.054Z,3
2022-10-04T05:55:14.091Z,3
2022-10-04T05:56:14.053Z,5
2022-10-04T05:57:14.122Z,6
2022-10-04T05:58:14.065Z,5
2022-10-04T05:59:14.065Z,4
2022-10-04T06:00:14.061Z,5
2022-10-04T06:01:14.171Z,6
2022-10-04T06:02:14.120Z,5
2022-10-04T06:03:14.068Z,6
2022-10-04T06:04:14.082Z,5
2022-10-04T06:05:14.085Z,6
2022-10-04T06:06:14.061Z,5
2022-10-04T06:07:14.105Z,5
2022-10-04T06:08:14.063Z,5
2022-10-04T06:09:14.128Z,6
2022-10-04T06:10:14.065Z,6
2022-10-04T06:11:14.054Z,5
2022-10-04T06:12:14.102Z,6
2022-10-04T06:13:14.094Z,5
2022-10-04T06:14:14.083Z,6
2022-10-04T06:15:14.055Z,6
2022-10-04T06:16:14.119Z,6
2022-10-04T06:17:14.076Z,6
2022-10-04T06:18:14.095Z,5
2022-10-04T06:19:14.072Z,6
2022-10-04T06:20:14.062Z,5
2022-10-04T06:21:14.095Z,6
2022-10-04T06:22:14.061Z,5
2022-10-04T06:23:14.059Z,5
2022-10-04T06:24:14.877Z,6
2022-10-04T06:25:14.059Z,4
2022-10-04T06:26:14.084Z,5
2022-10-04T06:27:14.056Z,5
2022-10-04T06:28:14.097Z,5
2022-10-04T06:29:14.064Z,5
2022-10-04T06:30:14.092Z,6
2022-10-04T06:31:14.122Z,6
2022-10-04T06:32:14.070Z,6
2022-10-04T06:33:14.059Z,5
2022-10-04T06:34:14.068Z,5
2022-10-04T06:35:14.069Z,6
2022-10-04T06:36:14.150Z,6
2022-10-04T06:37:14.067Z,6
2022-10-04T06:38:14.072Z,5
2022-10-04T06:39:14.099Z,5
2022-10-04T06:40:14.068Z,6
2022-10-04T06:41:14.065Z,6
2022-10-04T06:42:14.072Z,5
2022-10-04T06:43:14.085Z,6
2022-10-04T06:44:14.083Z,6
2022-10-04T06:45:14.079Z,5
2022-10-04T06:46:14.169Z,5
2022-10-04T06:47:14.072Z,5
2022-10-04T06:48:14.073Z,6
2022-10-04T06:49:14.096Z,5
2022-10-04T06:50:14.087Z,5
2022-10-04T06:51:14.078Z,5
2022-10-04T06:52:17.341Z,5
2022-10-04T06:53:14.078Z,4
2022-10-04T06:54:14.072Z,5
2022-10-04T06:55:14.078Z,5
2022-10-04T06:56:14.125Z,5
2022-10-04T06:57:14.082Z,4
2022-10-04T06:58:14.079Z,5
2022-10-04T06:59:14.073Z,5
2022-10-04T07:00:14.094Z,4
2022-10-04T07:01:14.174Z,4
2022-10-04T07:02:14.176Z,4
2022-10-04T07:03:14.084Z,5
2022-10-04T07:04:14.081Z,5
2022-10-04T07:05:14.076Z,4
2022-10-04T07:06:14.082Z,4
2022-10-04T07:07:14.132Z,5
2022-10-04T07:08:14.071Z,4
2022-10-04T07:09:14.072Z,4
2022-10-04T07:10:14.086Z,4
2022-10-04T07:11:14.094Z,5
2022-10-04T07:12:14.105Z,4
2022-10-04T07:13:14.083Z,4
2022-10-04T07:14:14.079Z,5
2022-10-04T07:15:14.078Z,4
2022-10-04T07:16:14.194Z,4
2022-10-04T07:17:14.075Z,4
2022-10-04T07:18:14.083Z,4
2022-10-04T07:19:14.134Z,4
2022-10-04T07:20:14.093Z,4
2022-10-04T07:25:14.105Z,4
2022-10-04T07:26:14.082Z,3
2022-10-04T07:27:14.100Z,4
2022-10-04T07:28:14.227Z,4
2022-10-04T07:29:14.098Z,3
2022-10-04T07:30:14.082Z,3
2022-10-04T07:31:14.166Z,4
2022-10-04T07:32:14.082Z,4
2022-10-04T07:33:14.092Z,4
2022-10-04T07:34:14.089Z,4
2022-10-04T07:35:14.106Z,3
2022-10-04T07:36:16.687Z,4
2022-10-04T07:37:14.102Z,4
2022-10-04T07:38:14.122Z,3
2022-10-04T07:39:14.115Z,4
2022-10-04T07:43:14.099Z,4
2022-10-04T07:44:14.084Z,3
2022-10-04T07:45:14.101Z,4
2022-10-04T07:46:14.220Z,4
2022-10-04T07:47:14.092Z,3
2022-10-04T07:48:14.098Z,4
2022-10-04T07:49:14.101Z,3
2022-10-04T07:50:14.117Z,3
2022-10-04T07:51:14.103Z,4
2022-10-04T07:52:14.100Z,4
2022-10-04T07:53:14.136Z,4
2022-10-04T07:54:14.088Z,4
2022-10-04T07:55:14.096Z,4
2022-10-04T07:56:14.096Z,4
2022-10-04T07:57:14.108Z,4
2022-10-04T07:58:14.156Z,4
2022-10-04T07:59:14.095Z,4
2022-10-04T08:00:14.095Z,4
2022-10-04T08:01:14.103Z,4
2022-10-04T08:02:14.232Z,4
2022-10-04T08:03:14.172Z,4
2022-10-04T08:04:14.102Z,4
2022-10-04T08:05:14.100Z,3
2022-10-04T08:06:14.103Z,3
2022-10-04T08:07:14.136Z,4
2022-10-04T08:08:14.112Z,3
2022-10-04T08:09:14.128Z,4
2022-10-04T08:10:14.119Z,4
2022-10-04T08:11:14.098Z,4
2022-10-04T08:12:14.107Z,4
2022-10-04T08:13:14.104Z,4
2022-10-04T08:14:14.112Z,4
2022-10-04T08:15:14.117Z,3
2022-10-04T08:16:14.188Z,4
2022-10-04T08:17:15.750Z,4
2022-10-04T08:18:14.144Z,4
2022-10-04T08:19:14.115Z,4
2022-10-04T08:20:14.116Z,4
2022-10-04T08:21:14.114Z,4
2022-10-04T08:22:14.122Z,4
2022-10-04T08:23:14.122Z,4
2022-10-04T08:25:14.111Z,3
2022-10-04T08:26:14.123Z,4
2022-10-04T08:27:14.121Z,3
2022-10-04T08:28:14.189Z,3
2022-10-04T08:29:14.103Z,4
2022-10-04T08:30:14.121Z,4
2022-10-04T08:31:14.180Z,4
2022-10-04T08:32:14.111Z,4
2022-10-04T08:33:14.112Z,4
2022-10-04T08:34:14.119Z,4
2022-10-04T08:35:14.122Z,4
2022-10-04T08:36:14.117Z,3
2022-10-04T08:37:14.125Z,4
2022-10-04T08:38:14.126Z,4
2022-10-04T08:39:14.119Z,3
2022-10-04T08:40:14.127Z,3
2022-10-04T08:41:14.127Z,3
2022-10-04T08:42:14.128Z,3
2022-10-04T08:43:14.113Z,3
2022-10-04T08:45:14.159Z,3
2022-10-04T08:46:14.174Z,4
2022-10-04T08:47:15.966Z,3
2022-10-04T08:48:14.119Z,3
2022-10-04T08:49:14.131Z,3
2022-10-04T08:50:14.116Z,3
2022-10-04T08:51:14.119Z,4
2022-10-04T08:52:14.158Z,4
2022-10-04T08:53:14.153Z,3
2022-10-04T08:54:14.134Z,3
2022-10-04T08:55:14.160Z,3
2022-10-04T08:56:14.121Z,3
2022-10-04T08:57:16.306Z,3
2022-10-04T08:58:14.194Z,4
2022-10-04T08:59:14.129Z,3
2022-10-04T09:00:14.136Z,4
2022-10-04T09:01:14.182Z,3
2022-10-04T09:02:14.186Z,3
2022-10-04T09:03:15.290Z,3
2022-10-04T09:04:14.128Z,4
2022-10-04T09:05:14.183Z,3
2022-10-04T09:06:14.158Z,3
2022-10-04T09:07:14.167Z,3
2022-10-04T09:08:14.121Z,3
2022-10-04T09:09:14.141Z,3
2022-10-04T09:10:14.188Z,4
2022-10-04T09:11:14.142Z,3
2022-10-04T09:12:14.134Z,3
2022-10-04T09:13:14.117Z,3
2022-10-04T09:14:14.159Z,4
2022-10-04T09:15:14.145Z,3
2022-10-04T09:16:14.250Z,3
2022-10-04T09:17:16.473Z,3
2022-10-04T09:18:14.147Z,3
2022-10-04T09:19:14.135Z,3
2022-10-04T09:20:37.359Z,3
2022-10-04T09:21:14.147Z,3
2022-10-04T09:22:14.140Z,3
2022-10-04T09:23:14.161Z,3
2022-10-04T09:24:14.140Z,3
2022-10-04T09:25:14.159Z,3
2022-10-04T09:26:14.188Z,4
2022-10-04T09:27:23.101Z,3
2022-10-04T09:28:14.163Z,3
2022-10-04T09:29:14.134Z,3
2022-10-04T09:30:14.127Z,3
2022-10-04T09:31:14.228Z,3
2022-10-04T09:32:14.137Z,3
2022-10-04T09:33:14.140Z,3
2022-10-04T09:34:14.141Z,3
2022-10-04T09:35:14.131Z,3
2022-10-04T09:36:14.150Z,3
2022-10-04T09:37:14.153Z,3
2022-10-04T09:38:14.139Z,3
2022-10-04T09:39:29.505Z,3
2022-10-04T09:40:14.144Z,3
2022-10-04T09:41:14.137Z,3
2022-10-04T09:42:14.141Z,3
2022-10-04T09:43:14.143Z,3
2022-10-04T09:44:14.148Z,3
2022-10-04T09:45:14.183Z,3
2022-10-04T09:46:14.225Z,3
2022-10-04T09:47:14.140Z,3
2022-10-04T09:48:14.145Z,3
2022-10-04T09:49:14.150Z,3
2022-10-04T09:50:14.268Z,3
2022-10-04T09:51:14.167Z,3
2022-10-04T09:52:14.152Z,3
2022-10-04T09:53:14.143Z,3
2022-10-04T09:54:14.145Z,3
2022-10-04T09:55:14.151Z,3
2022-10-04T09:56:14.142Z,3
2022-10-04T09:58:14.162Z,3
2022-10-04T09:59:14.152Z,3
2022-10-04T10:00:14.212Z,3
2022-10-04T10:01:14.219Z,3
2022-10-04T10:02:14.162Z,3
2022-10-04T10:03:16.057Z,3
2022-10-04T10:04:14.194Z,3
2022-10-04T10:05:14.159Z,3
2022-10-04T10:06:14.167Z,3
2022-10-04T10:07:14.147Z,3
2022-10-04T10:08:14.148Z,3
2022-10-04T10:09:14.150Z,3
2022-10-04T10:10:14.162Z,3
2022-10-04T10:11:14.153Z,3
2022-10-04T10:12:14.156Z,2
2022-10-04T10:13:14.149Z,2
2022-10-04T10:14:14.152Z,3
2022-10-04T10:15:14.173Z,3
2022-10-04T10:16:14.292Z,2
2022-10-04T10:17:14.165Z,3
2022-10-04T10:18:14.174Z,3
2022-10-04T10:19:14.174Z,3
2022-10-04T10:20:14.179Z,3
2022-10-04T10:21:14.174Z,2
2022-10-04T10:25:14.172Z,2
2022-10-04T10:26:14.167Z,3
2022-10-04T10:27:14.169Z,3
2022-10-04T10:28:14.270Z,3
2022-10-04T10:29:14.935Z,2
2022-10-04T10:30:14.169Z,3
2022-10-04T10:31:14.337Z,3
2022-10-04T10:32:14.173Z,3
2022-10-04T10:34:14.173Z,3
2022-10-04T10:35:14.177Z,3
2022-10-04T10:36:14.163Z,3
2022-10-04T10:37:14.169Z,3
2022-10-04T10:38:14.162Z,2
2022-10-04T10:39:14.163Z,3
2022-10-04T10:40:14.171Z,3
2022-10-04T10:41:14.172Z,3
2022-10-04T10:42:14.180Z,3
2022-10-04T10:43:14.162Z,3
2022-10-04T10:44:14.242Z,3
2022-10-04T10:45:14.208Z,3
2022-10-04T10:46:14.227Z,3
2022-10-04T10:47:14.171Z,3
2022-10-04T10:48:14.158Z,3
2022-10-04T10:49:15.514Z,3
2022-10-04T10:50:14.194Z,3
2022-10-04T10:51:14.187Z,3
2022-10-04T10:52:14.176Z,3
2022-10-04T10:53:14.175Z,3
2022-10-04T10:54:14.174Z,3
2022-10-04T10:55:14.180Z,3
2022-10-04T10:56:14.182Z,3
2022-10-04T10:57:14.184Z,3
2022-10-04T10:58:14.178Z,3
2022-10-04T10:59:14.237Z,3
2022-10-04T11:00:14.209Z,3
2022-10-04T11:01:14.280Z,3
2022-10-04T11:02:14.344Z,3
2022-10-04T11:03:16.470Z,3
2022-10-04T11:04:14.187Z,3
2022-10-04T11:05:14.213Z,3
2022-10-04T11:06:14.199Z,3
2022-10-04T11:07:14.191Z,3
2022-10-04T11:08:14.178Z,3
2022-10-04T11:09:14.194Z,3
2022-10-04T11:10:14.223Z,3
2022-10-04T11:11:14.231Z,3
2022-10-04T11:12:14.202Z,3
2022-10-04T11:13:14.192Z,3
2022-10-04T11:14:14.195Z,3
2022-10-04T11:16:14.266Z,2
2022-10-04T11:17:14.196Z,3
2022-10-04T11:18:14.194Z,3
2022-10-04T11:19:14.200Z,3
2022-10-04T11:20:14.185Z,3
2022-10-04T11:21:14.190Z,3
2022-10-04T11:22:14.189Z,2
2022-10-04T11:23:14.182Z,3
2022-10-04T11:24:14.189Z,3
2022-10-04T11:25:14.200Z,2
2022-10-04T11:26:14.187Z,3
2022-10-04T11:27:14.182Z,3
2022-10-04T11:28:14.317Z,3
2022-10-04T11:29:14.187Z,3
2022-10-04T11:30:14.215Z,3
2022-10-04T11:31:14.256Z,2
2022-10-04T11:32:14.202Z,3
2022-10-04T11:33:14.188Z,3
2022-10-04T11:34:16.765Z,3
2022-10-04T11:36:14.189Z,2
2022-10-04T11:37:14.197Z,3
2022-10-04T11:38:14.194Z,2
2022-10-04T11:39:14.187Z,3
2022-10-04T11:40:14.268Z,3
2022-10-04T11:41:14.197Z,2
2022-10-04T11:42:14.208Z,2
2022-10-04T11:43:14.205Z,3
2022-10-04T11:44:14.196Z,3
2022-10-04T11:45:14.197Z,3
2022-10-04T11:46:14.313Z,3
2022-10-04T11:47:14.254Z,3
2022-10-04T11:48:14.205Z,3
2022-10-04T11:49:14.267Z,3
2022-10-04T11:50:14.237Z,3
2022-10-04T11:51:14.202Z,2
2022-10-04T11:52:14.203Z,2
2022-10-04T11:53:14.220Z,2
2022-10-04T11:54:14.206Z,2
2022-10-04T11:55:14.197Z,3
2022-10-04T11:56:14.210Z,3
2022-10-04T11:57:14.199Z,3
2022-10-04T11:58:14.202Z,2
2022-10-04T11:59:14.197Z,3
2022-10-04T12:00:14.204Z,3
2022-10-04T12:02:14.209Z,2
2022-10-04T12:03:14.234Z,3
2022-10-04T12:04:14.338Z,3
2022-10-04T12:05:14.603Z,2
2022-10-04T12:06:14.217Z,3
2022-10-04T12:07:14.209Z,3
2022-10-04T12:08:14.215Z,3
2022-10-04T12:09:14.211Z,2
2022-10-04T12:10:14.211Z,2
2022-10-04T12:11:14.211Z,2
2022-10-04T12:12:14.207Z,2
2022-10-04T12:14:14.206Z,2
2022-10-04T12:15:14.214Z,3
2022-10-04T12:16:14.315Z,2
2022-10-04T12:17:14.217Z,3
2022-10-04T12:18:14.222Z,2
2022-10-04T12:19:14.217Z,2
2022-10-04T12:23:14.211Z,3
2022-10-04T12:24:14.217Z,2
2022-10-04T12:25:14.217Z,2
2022-10-04T12:26:18.470Z,3
2022-10-04T12:27:14.235Z,2
2022-10-04T12:28:14.297Z,3
2022-10-04T12:29:14.226Z,2
2022-10-04T12:30:14.217Z,3
2022-10-04T12:31:14.288Z,3
2022-10-04T12:32:14.315Z,3
2022-10-04T12:33:14.238Z,2
2022-10-04T12:34:14.224Z,3
2022-10-04T12:35:14.225Z,3
2022-10-04T12:36:14.245Z,3
2022-10-04T12:37:14.247Z,3
2022-10-04T12:38:14.238Z,3
2022-10-04T12:39:14.220Z,3
2022-10-04T12:40:14.237Z,2
2022-10-04T12:41:14.223Z,3
2022-10-04T12:42:14.235Z,3
2022-10-04T12:44:14.237Z,2
2022-10-04T12:45:14.229Z,3
2022-10-04T12:46:14.323Z,3
2022-10-04T12:47:14.238Z,2
2022-10-04T12:50:14.238Z,3
2022-10-04T12:51:14.227Z,3
2022-10-04T12:52:14.236Z,3
2022-10-04T12:53:14.237Z,3
2022-10-04T12:54:14.246Z,3
2022-10-04T12:56:14.220Z,2
2022-10-04T12:57:14.248Z,2
2022-10-04T12:58:14.219Z,2
2022-10-04T12:59:14.228Z,3
2022-10-04T13:01:14.245Z,3
2022-10-04T13:03:14.254Z,3
2022-10-04T13:04:14.225Z,3
2022-10-04T13:05:14.284Z,3
2022-10-04T13:06:14.255Z,3
2022-10-04T13:07:14.253Z,2
2022-10-04T13:08:14.248Z,3
2022-10-04T13:09:14.250Z,3
2022-10-04T13:10:29.650Z,2
2022-10-04T13:11:14.230Z,3
2022-10-04T13:12:14.248Z,3
2022-10-04T13:13:14.246Z,3
2022-10-04T13:14:14.261Z,3
2022-10-04T13:15:14.256Z,3
2022-10-04T13:17:35.708Z,3
2022-10-04T13:18:14.234Z,3
2022-10-04T13:19:14.233Z,3
2022-10-04T13:20:14.243Z,2
2022-10-04T13:21:14.262Z,3
2022-10-04T13:22:15.640Z,3
2022-10-04T13:23:14.238Z,3
2022-10-04T13:24:14.280Z,3
2022-10-04T13:25:14.241Z,3
2022-10-04T13:26:14.260Z,2
2022-10-04T13:27:14.256Z,3
2022-10-04T13:28:14.274Z,2
2022-10-04T13:29:14.254Z,3
2022-10-04T13:30:14.293Z,3
2022-10-04T13:31:14.355Z,3
2022-10-04T13:32:14.333Z,3
2022-10-04T13:33:14.245Z,3
2022-10-04T13:35:14.257Z,3
2022-10-04T13:36:14.269Z,3
2022-10-04T13:40:14.277Z,3
2022-10-04T13:41:14.264Z,3
2022-10-04T13:42:14.267Z,3
2022-10-04T13:43:14.258Z,3
2022-10-04T13:44:14.251Z,2
2022-10-04T13:45:14.273Z,3
2022-10-04T13:48:17.098Z,3
2022-10-04T13:49:14.275Z,3
2022-10-04T13:50:14.253Z,3
2022-10-04T13:51:14.249Z,3
2022-10-04T13:52:14.250Z,3
2022-10-04T13:53:14.263Z,3
2022-10-04T13:54:14.268Z,2
2022-10-04T13:55:14.258Z,3
2022-10-04T13:56:14.254Z,3
2022-10-04T13:57:14.254Z,3
2022-10-04T13:58:14.259Z,2
2022-10-04T13:59:14.264Z,3
2022-10-04T14:00:14.271Z,3
2022-10-04T14:01:14.354Z,3
2022-10-04T14:02:14.280Z,2
2022-10-04T14:03:14.288Z,3
2022-10-04T14:04:14.263Z,3
2022-10-04T14:05:14.416Z,2
2022-10-04T14:06:14.284Z,4
2022-10-04T14:07:14.271Z,3
2022-10-04T14:08:14.256Z,14
2022-10-04T14:09:14.266Z,3
2022-10-04T14:10:14.274Z,3
2022-10-04T14:11:14.271Z,3
2022-10-04T14:12:14.268Z,3
2022-10-04T14:13:14.259Z,3
2022-10-04T14:14:14.267Z,4
2022-10-04T14:15:14.283Z,3
2022-10-04T14:16:14.323Z,3
2022-10-04T14:17:14.274Z,3
2022-10-04T14:18:14.276Z,3
2022-10-04T14:19:14.278Z,3
2022-10-04T14:20:14.278Z,3
2022-10-04T14:21:19.133Z,3
2022-10-04T14:22:14.275Z,5
2022-10-04T14:23:14.275Z,3
2022-10-04T14:24:14.278Z,4
2022-10-04T14:26:14.272Z,3
2022-10-04T14:27:14.277Z,3
2022-10-04T14:28:14.384Z,3
2022-10-04T14:29:14.279Z,3
2022-10-04T14:30:14.274Z,6
2022-10-04T14:34:14.277Z,3
2022-10-04T14:35:14.261Z,2
2022-10-04T14:36:14.346Z,3
2022-10-04T14:37:14.287Z,5
2022-10-04T14:38:14.276Z,3
2022-10-04T14:39:14.282Z,3
2022-10-04T14:40:14.282Z,3
2022-10-04T14:42:14.284Z,3
2022-10-04T14:43:14.279Z,7
2022-10-04T14:44:14.266Z,4
2022-10-04T14:45:14.863Z,3
2022-10-04T14:47:14.279Z,4
2022-10-04T14:48:14.276Z,3
2022-10-04T14:51:14.290Z,3
2022-10-04T14:52:14.280Z,4
2022-10-04T14:53:14.280Z,3
2022-10-04T14:54:14.322Z,3
2022-10-04T14:56:14.298Z,4
2022-10-04T14:57:14.299Z,3
2022-10-04T14:58:14.282Z,4
2022-10-04T14:59:14.290Z,4
2022-10-04T15:00:14.286Z,3
2022-10-04T15:01:14.379Z,3
2022-10-04T15:02:14.284Z,2
2022-10-04T15:03:14.281Z,3
2022-10-04T15:04:14.378Z,3
2022-10-04T15:05:14.281Z,2
2022-10-04T15:06:14.284Z,3
2022-10-04T15:08:14.300Z,4
2022-10-04T15:09:14.285Z,4
2022-10-04T15:10:14.293Z,3
2022-10-04T15:11:14.290Z,3
2022-10-04T15:12:32.447Z,3
2022-10-04T15:13:14.295Z,2
2022-10-04T15:14:14.299Z,3
2022-10-04T15:15:14.397Z,3
2022-10-04T15:16:14.791Z,3
2022-10-04T15:17:14.282Z,2
2022-10-04T15:18:14.292Z,3
2022-10-04T15:19:14.290Z,2
2022-10-04T15:20:14.287Z,2
2022-10-04T15:21:14.282Z,3
2022-10-04T15:22:14.299Z,3
2022-10-04T15:23:14.314Z,2
2022-10-04T15:24:14.302Z,3
2022-10-04T15:25:14.340Z,3
2022-10-04T15:26:14.296Z,2
2022-10-04T15:27:14.308Z,3
2022-10-04T15:31:14.338Z,2
2022-10-04T15:32:14.313Z,2
2022-10-04T15:33:14.365Z,2
2022-10-04T15:34:14.317Z,2
2022-10-04T15:35:14.302Z,2
2022-10-04T15:36:14.301Z,2
2022-10-04T15:37:14.294Z,3
2022-10-04T15:38:14.387Z,2
2022-10-04T15:39:14.297Z,3
2022-10-04T15:40:14.308Z,3
2022-10-04T15:41:14.313Z,2
2022-10-04T15:42:14.319Z,3
2022-10-04T15:43:14.377Z,4
2022-10-04T15:44:14.324Z,3
2022-10-04T15:46:14.406Z,4
2022-10-04T15:47:14.303Z,3
2022-10-04T15:48:14.303Z,2
2022-10-04T15:49:14.316Z,3
2022-10-04T15:50:14.324Z,2